createdAt,value
2023-03-11T00:01:12.595Z,23.50
2023-03-11T00:03:40.581Z,23.50
2023-03-11T00:06:08.674Z,23.40
2023-03-11T00:08:36.624Z,23.30
2023-03-11T00:11:05.120Z,23.30
2023-03-11T00:13:33.301Z,23.20
2023-03-11T00:16:01.632Z,23.10
2023-03-11T00:18:31.652Z,23.00
2023-03-11T00:21:00.348Z,23.00
2023-03-11T00:23:28.569Z,22.90
2023-03-11T00:25:56.654Z,22.80
2023-03-11T00:28:26.635Z,22.80
2023-03-11T00:30:54.679Z,22.50
2023-03-11T00:33:22.657Z,22.50
2023-03-11T00:35:52.143Z,22.60
2023-03-11T00:38:20.135Z,22.60
2023-03-11T00:40:48.567Z,22.50
2023-03-11T00:43:16.866Z,22.50
2023-03-11T00:45:44.815Z,22.40
2023-03-11T00:48:13.091Z,22.40
2023-03-11T00:50:41.144Z,22.30
2023-03-11T00:53:11.464Z,22.30
2023-03-11T00:55:39.447Z,22.30
2023-03-11T00:58:07.913Z,22.20
2023-03-11T01:00:35.941Z,22.20
2023-03-11T01:03:03.904Z,22.20
2023-03-11T01:05:32.772Z,22.10
2023-03-11T01:08:00.883Z,22.10
2023-03-11T01:10:30.221Z,22.10
2023-03-11T01:12:58.202Z,22.00
2023-03-11T01:15:27.512Z,22.00
2023-03-11T01:17:55.494Z,22.00
2023-03-11T01:20:23.680Z,21.90
2023-03-11T01:22:51.623Z,21.90
2023-03-11T01:25:20.496Z,21.90
2023-03-11T01:27:49.811Z,21.80
2023-03-11T01:30:19.354Z,21.80
2023-03-11T01:32:47.339Z,21.80
2023-03-11T01:35:16.313Z,21.70
2023-03-11T01:37:44.272Z,21.70
2023-03-11T01:40:16.105Z,21.70
2023-03-11T01:42:44.051Z,21.70
2023-03-11T01:45:39.475Z,21.60
2023-03-11T01:48:07.490Z,21.60
2023-03-11T01:50:37.039Z,21.60
2023-03-11T01:53:05.316Z,21.50
2023-03-11T01:55:33.447Z,21.50
2023-03-11T01:58:01.444Z,21.40
2023-03-11T02:00:30.867Z,21.40
2023-03-11T02:02:59.318Z,21.40
2023-03-11T02:05:27.262Z,21.40
2023-03-11T02:07:55.788Z,21.40
2023-03-11T02:10:23.735Z,21.30
2023-03-11T02:12:51.664Z,21.30
2023-03-11T02:15:19.792Z,21.30
2023-03-11T02:17:49.090Z,21.30
2023-03-11T02:20:22.620Z,21.20
2023-03-11T02:22:50.549Z,21.20
2023-03-11T02:25:22.660Z,21.20
2023-03-11T02:27:52.995Z,21.20
2023-03-11T02:30:21.272Z,21.20
2023-03-11T02:32:49.245Z,21.10
2023-03-11T02:35:17.453Z,21.10
2023-03-11T02:37:47.062Z,21.10
2023-03-11T02:40:35.249Z,21.10
2023-03-11T02:43:05.132Z,21.00
2023-03-11T02:45:33.047Z,21.00
2023-03-11T02:48:01.001Z,21.00
2023-03-11T02:50:29.624Z,21.00
2023-03-11T02:52:57.574Z,21.00
2023-03-11T02:55:25.711Z,21.00
2023-03-11T02:57:53.672Z,21.00
2023-03-11T03:00:23.276Z,20.90
2023-03-11T03:02:52.375Z,20.90
2023-03-11T03:05:21.132Z,20.90
2023-03-11T03:07:49.181Z,20.90
2023-03-11T03:10:21.062Z,20.90
2023-03-11T03:12:48.983Z,20.80
2023-03-11T03:15:17.096Z,20.80
2023-03-11T03:17:46.541Z,20.80
2023-03-11T03:20:15.133Z,20.70
2023-03-11T03:22:43.421Z,20.70
2023-03-11T03:25:11.526Z,20.70
2023-03-11T03:27:39.597Z,20.70
2023-03-11T03:30:08.450Z,20.70
2023-03-11T03:32:36.454Z,20.60
2023-03-11T03:35:06.697Z,20.60
2023-03-11T03:37:34.890Z,20.60
2023-03-11T03:40:03.716Z,20.60
2023-03-11T03:42:31.815Z,20.60
2023-03-11T03:44:59.738Z,20.60
2023-03-11T03:47:27.652Z,20.50
2023-03-11T03:49:55.583Z,20.50
2023-03-11T03:52:24.909Z,20.50
2023-03-11T03:54:52.900Z,20.50
2023-03-11T03:57:20.864Z,20.50
2023-03-11T03:59:48.846Z,20.40
2023-03-11T04:02:16.911Z,20.50
2023-03-11T04:04:44.845Z,20.40
2023-03-11T04:07:12.835Z,20.40
2023-03-11T04:09:42.413Z,20.40
2023-03-11T04:12:11.972Z,20.40
2023-03-11T04:14:39.884Z,20.40
2023-03-11T04:17:07.909Z,20.30
2023-03-11T04:19:36.020Z,20.30
2023-03-11T04:22:03.981Z,20.30
2023-03-11T04:24:31.909Z,20.30
2023-03-11T04:27:01.261Z,20.30
2023-03-11T04:29:29.170Z,20.30
2023-03-11T04:31:57.094Z,20.30
2023-03-11T04:34:25.155Z,20.20
2023-03-11T04:36:53.707Z,20.20
2023-03-11T04:39:21.724Z,20.20
2023-03-11T04:41:49.651Z,20.20
2023-03-11T04:44:19.024Z,20.20
2023-03-11T04:46:46.944Z,20.20
2023-03-11T04:49:14.885Z,20.10
2023-03-11T04:51:43.113Z,20.10
2023-03-11T04:54:11.068Z,20.10
2023-03-11T04:56:39.102Z,20.10
2023-03-11T04:59:07.046Z,20.10
2023-03-11T05:01:36.477Z,20.00
2023-03-11T05:04:04.411Z,20.00
2023-03-11T05:06:32.335Z,20.00
2023-03-11T05:09:00.264Z,20.00
2023-03-11T05:11:28.224Z,20.00
2023-03-11T05:13:56.170Z,20.00
2023-03-11T05:16:24.401Z,20.00
2023-03-11T05:18:53.742Z,20.00
2023-03-11T05:21:21.662Z,19.90
2023-03-11T05:23:49.687Z,19.90
2023-03-11T05:26:17.768Z,19.90
2023-03-11T05:28:45.671Z,20.00
2023-03-11T05:31:13.692Z,19.90
2023-03-11T05:33:41.626Z,19.90
2023-03-11T05:36:11.669Z,19.90
2023-03-11T05:38:40.058Z,19.80
2023-03-11T05:41:08.001Z,19.80
2023-03-11T05:43:35.896Z,19.80
2023-03-11T05:46:03.945Z,19.80
2023-03-11T05:48:31.999Z,19.80
2023-03-11T05:51:00.437Z,19.80
2023-03-11T05:53:29.714Z,19.80
2023-03-11T05:55:58.381Z,19.70
2023-03-11T05:58:27.654Z,19.70
2023-03-11T06:00:55.753Z,19.70
2023-03-11T06:03:23.812Z,19.70
2023-03-11T06:05:52.730Z,19.70
2023-03-11T06:08:21.952Z,19.70
2023-03-11T06:10:51.229Z,19.60
2023-03-11T06:13:19.182Z,19.60
2023-03-11T06:15:47.071Z,19.60
2023-03-11T06:18:15.026Z,19.60
2023-03-11T06:20:42.970Z,19.60
2023-03-11T06:23:10.927Z,19.60
2023-03-11T06:25:38.856Z,19.60
2023-03-11T06:28:08.209Z,19.50
2023-03-11T06:30:36.122Z,19.50
2023-03-11T06:33:04.035Z,19.60
2023-03-11T06:35:31.983Z,19.50
2023-03-11T06:37:59.921Z,19.50
2023-03-11T06:40:28.166Z,19.50
2023-03-11T06:42:56.082Z,19.50
2023-03-11T06:45:25.391Z,19.50
2023-03-11T06:47:53.284Z,19.60
2023-03-11T06:50:23.631Z,19.70
2023-03-11T06:52:51.622Z,19.80
2023-03-11T06:55:21.142Z,19.90
2023-03-11T06:57:49.076Z,20.00
2023-03-11T07:00:17.750Z,20.10
2023-03-11T07:02:47.002Z,20.20
2023-03-11T07:05:15.090Z,20.30
2023-03-11T07:07:43.042Z,20.30
2023-03-11T07:10:12.034Z,20.40
2023-03-11T07:12:39.994Z,20.40
2023-03-11T07:15:09.434Z,20.40
2023-03-11T07:17:37.339Z,20.40
2023-03-11T07:20:08.020Z,20.40
2023-03-11T07:22:35.978Z,20.40
2023-03-11T07:25:03.949Z,20.30
2023-03-11T07:27:31.916Z,20.30
2023-03-11T07:29:59.856Z,20.30
2023-03-11T07:32:27.873Z,20.30
2023-03-11T07:34:55.947Z,20.20
2023-03-11T07:37:25.271Z,20.20
2023-03-11T07:39:53.248Z,20.20
2023-03-11T07:42:21.841Z,20.10
2023-03-11T07:44:51.835Z,20.10
2023-03-11T07:47:19.814Z,20.10
2023-03-11T07:49:47.795Z,20.00
2023-03-11T07:52:15.735Z,20.10
2023-03-11T07:54:47.311Z,20.00
2023-03-11T07:57:17.169Z,20.00
2023-03-11T07:59:45.143Z,20.00
2023-03-11T08:02:13.191Z,20.00
2023-03-11T08:04:41.226Z,20.00
2023-03-11T08:07:09.212Z,20.00
2023-03-11T08:09:37.178Z,20.00
2023-03-11T08:12:07.071Z,20.00
2023-03-11T08:14:34.988Z,19.90
2023-03-11T08:17:02.896Z,19.90
2023-03-11T08:19:30.888Z,19.90
2023-03-11T08:21:58.821Z,19.90
2023-03-11T08:24:26.742Z,19.90
2023-03-11T08:26:55.488Z,19.90
2023-03-11T08:29:24.757Z,19.90
2023-03-11T08:31:52.680Z,19.80
2023-03-11T08:34:21.255Z,19.80
2023-03-11T08:36:49.564Z,19.80
2023-03-11T08:39:17.492Z,19.80
2023-03-11T08:41:45.432Z,19.80
2023-03-11T08:44:13.400Z,19.80
2023-03-11T08:46:42.795Z,19.80
2023-03-11T08:49:10.927Z,19.80
2023-03-11T08:51:38.887Z,19.80
2023-03-11T08:54:06.919Z,19.80
2023-03-11T08:56:34.896Z,19.80
2023-03-11T08:59:03.012Z,19.90
2023-03-11T09:01:30.970Z,19.90
2023-03-11T09:04:00.588Z,20.00
2023-03-11T09:06:30.412Z,20.10
2023-03-11T09:08:58.479Z,20.20
2023-03-11T09:11:26.416Z,20.30
2023-03-11T09:13:54.374Z,20.50
2023-03-11T09:16:23.007Z,20.70
2023-03-11T09:18:51.007Z,20.90
2023-03-11T09:21:20.343Z,21.20
2023-03-11T09:23:48.392Z,21.40
2023-03-11T09:26:16.556Z,21.60
2023-03-11T09:28:48.857Z,21.90
2023-03-11T09:31:16.974Z,22.10
2023-03-11T09:33:45.012Z,22.30
2023-03-11T09:36:13.858Z,22.50
2023-03-11T09:38:43.382Z,22.60
2023-03-11T09:41:19.829Z,22.80
2023-03-11T09:43:52.507Z,23.00
2023-03-11T09:46:31.659Z,23.10
2023-03-11T09:49:01.775Z,23.20
2023-03-11T09:51:30.722Z,23.40
2023-03-11T09:54:03.236Z,23.50
2023-03-11T09:56:31.363Z,23.60
2023-03-11T09:59:02.447Z,23.70
2023-03-11T10:01:33.201Z,23.80
2023-03-11T10:04:04.300Z,23.80
2023-03-11T10:06:32.422Z,23.80
2023-03-11T10:09:04.732Z,23.80
2023-03-11T10:11:50.844Z,23.70
2023-03-11T10:14:27.687Z,23.80
2023-03-11T10:16:58.197Z,23.80
2023-03-11T10:19:32.027Z,23.90
2023-03-11T10:22:03.795Z,24.10
2023-03-11T10:24:40.291Z,24.20
2023-03-11T10:27:10.703Z,24.30
2023-03-11T10:29:43.628Z,24.40
2023-03-11T10:32:14.370Z,24.60
2023-03-11T10:34:44.229Z,24.60
2023-03-11T10:37:13.194Z,24.70
2023-03-11T10:39:42.497Z,24.90
2023-03-11T10:42:13.296Z,24.90
2023-03-11T10:44:41.655Z,25.00
2023-03-11T10:47:14.720Z,25.10
2023-03-11T10:49:42.628Z,25.20
2023-03-11T10:52:10.544Z,25.30
2023-03-11T10:54:39.651Z,25.30
2023-03-11T10:57:21.158Z,25.40
2023-03-11T10:59:50.504Z,25.40
2023-03-11T11:02:25.967Z,25.50
2023-03-11T11:05:05.936Z,25.60
2023-03-11T11:07:34.714Z,25.60
2023-03-11T11:10:16.442Z,25.60
2023-03-11T11:12:55.819Z,25.50
2023-03-11T11:15:25.237Z,25.50
2023-03-11T11:17:55.479Z,25.50
2023-03-11T11:20:24.203Z,25.40
2023-03-11T11:22:53.838Z,25.50
2023-03-11T11:25:30.390Z,25.60
2023-03-11T11:28:00.832Z,25.70
2023-03-11T11:30:29.345Z,25.70
2023-03-11T11:32:57.385Z,25.90
2023-03-11T11:35:25.766Z,26.00
2023-03-11T11:37:54.491Z,26.10
2023-03-11T11:40:27.717Z,26.30
2023-03-11T11:42:57.696Z,26.40
2023-03-11T11:45:35.673Z,26.50
2023-03-11T11:48:07.171Z,26.50
2023-03-11T11:50:37.731Z,26.50
2023-03-11T11:53:16.124Z,26.50
2023-03-11T11:55:45.528Z,26.50
2023-03-11T11:58:13.548Z,26.50
2023-03-11T12:00:48.777Z,26.50
2023-03-11T12:03:36.812Z,26.50
2023-03-11T12:06:07.611Z,26.50
2023-03-11T12:08:37.623Z,26.50
2023-03-11T12:11:06.943Z,26.70
2023-03-11T12:14:00.578Z,26.70
2023-03-11T12:16:34.806Z,26.80
2023-03-11T12:19:04.918Z,26.90
2023-03-11T12:21:43.005Z,27.10
2023-03-11T12:24:18.888Z,27.50
2023-03-11T12:26:47.355Z,27.20
2023-03-11T12:29:19.896Z,27.20
2023-03-11T12:31:49.194Z,27.30
2023-03-11T12:34:18.966Z,27.30
2023-03-11T12:36:47.077Z,27.20
2023-03-11T12:39:22.207Z,27.20
2023-03-11T12:41:50.165Z,27.10
2023-03-11T12:44:26.168Z,27.00
2023-03-11T12:47:27.256Z,26.90
2023-03-11T12:49:55.779Z,26.80
2023-03-11T12:52:26.351Z,26.70
2023-03-11T12:55:36.996Z,26.70
2023-03-11T12:58:30.268Z,26.50
2023-03-11T13:01:12.125Z,26.40
2023-03-11T13:03:54.424Z,26.40
2023-03-11T13:06:36.087Z,26.30
2023-03-11T13:09:04.275Z,26.30
2023-03-11T13:11:44.018Z,26.30
2023-03-11T13:14:28.349Z,26.40
2023-03-11T13:16:56.379Z,26.50
2023-03-11T13:19:50.094Z,26.70
2023-03-11T13:22:44.224Z,26.80
2023-03-11T13:25:28.323Z,27.00
2023-03-11T13:27:57.960Z,27.00
2023-03-11T13:30:26.428Z,27.10
2023-03-11T13:33:00.728Z,27.00
2023-03-11T13:35:41.891Z,27.00
2023-03-11T13:38:42.685Z,27.00
2023-03-11T13:41:15.482Z,26.90
2023-03-11T13:43:45.360Z,26.80
2023-03-11T13:46:15.711Z,26.80
2023-03-11T13:48:45.286Z,26.60
2023-03-11T13:51:17.539Z,26.60
2023-03-11T13:53:47.115Z,26.50
2023-03-11T13:56:18.508Z,26.50
2023-03-11T13:58:46.452Z,26.40
2023-03-11T14:01:16.752Z,26.40
2023-03-11T14:03:45.709Z,26.30
2023-03-11T14:06:19.322Z,26.20
2023-03-11T14:08:53.912Z,26.20
2023-03-11T14:11:21.814Z,26.10
2023-03-11T14:13:50.188Z,26.10
2023-03-11T14:16:20.013Z,26.10
2023-03-11T14:18:48.660Z,26.10
2023-03-11T14:21:18.507Z,26.20
2023-03-11T14:23:47.594Z,26.30
2023-03-11T14:26:16.461Z,26.40
2023-03-11T14:28:45.561Z,26.50
2023-03-11T14:31:30.958Z,26.70
2023-03-11T14:34:04.198Z,26.80
2023-03-11T14:36:41.607Z,26.80
2023-03-11T14:39:24.021Z,26.90
2023-03-11T14:41:52.212Z,26.90
2023-03-11T14:44:20.203Z,26.80
2023-03-11T14:46:48.185Z,26.80
2023-03-11T14:49:16.989Z,26.80
2023-03-11T14:51:46.261Z,26.70
2023-03-11T14:54:17.701Z,26.70
2023-03-11T14:56:47.974Z,26.60
2023-03-11T14:59:16.991Z,26.60
2023-03-11T15:01:45.000Z,26.50
2023-03-11T15:04:13.903Z,26.50
2023-03-11T15:06:43.268Z,26.40
2023-03-11T15:09:13.680Z,26.40
2023-03-11T15:11:48.325Z,26.30
2023-03-11T15:14:22.274Z,26.30
2023-03-11T15:16:50.345Z,26.30
2023-03-11T15:21:25.020Z,26.20
2023-03-11T15:23:54.233Z,26.10
2023-03-11T15:26:24.563Z,26.00
2023-03-11T15:28:57.264Z,26.00
2023-03-11T15:31:31.304Z,25.90
2023-03-11T15:34:27.737Z,25.80
2023-03-11T15:37:02.282Z,25.80
2023-03-11T15:39:43.817Z,25.90
2023-03-11T15:42:19.052Z,25.80
2023-03-11T15:44:52.625Z,26.00
2023-03-11T15:47:21.535Z,26.10
2023-03-11T15:49:49.762Z,26.20
2023-03-11T15:52:19.522Z,26.40
2023-03-11T15:54:55.384Z,26.50
2023-03-11T15:57:24.840Z,26.50
2023-03-11T15:59:52.961Z,26.60
2023-03-11T16:02:23.103Z,26.60
2023-03-11T16:04:51.488Z,26.60
2023-03-11T16:17:48.339Z,26.80
2023-03-11T16:20:17.419Z,26.70
2023-03-11T16:22:46.743Z,26.50
2023-03-11T16:25:19.973Z,26.30
2023-03-11T16:27:47.907Z,26.20
2023-03-11T16:30:16.989Z,26.10
2023-03-11T16:32:44.933Z,26.00
2023-03-11T16:35:12.937Z,26.00
2023-03-11T16:37:42.741Z,25.80
2023-03-11T16:40:15.006Z,25.80
2023-03-11T16:42:43.665Z,25.70
2023-03-11T16:45:12.123Z,25.70
2023-03-11T16:47:40.081Z,25.70
2023-03-11T16:50:09.108Z,25.70
2023-03-11T16:52:37.072Z,25.80
2023-03-11T16:55:05.570Z,25.90
2023-03-11T16:57:34.898Z,26.10
2023-03-11T17:00:05.404Z,26.20
2023-03-11T17:02:33.445Z,26.40
2023-03-11T17:05:01.489Z,26.50
2023-03-11T17:07:29.522Z,26.60
2023-03-11T17:09:58.107Z,26.70
2023-03-11T17:12:26.107Z,26.70
2023-03-11T17:14:55.650Z,26.60
2023-03-11T17:17:23.621Z,26.60
2023-03-11T17:19:51.575Z,26.60
2023-03-11T17:22:19.520Z,26.60
2023-03-11T17:24:47.445Z,26.50
2023-03-11T17:27:15.397Z,26.40
2023-03-11T17:29:43.386Z,26.40
2023-03-11T17:32:16.792Z,26.40
2023-03-11T17:34:45.129Z,26.30
2023-03-11T17:37:14.184Z,26.20
2023-03-11T17:39:42.160Z,26.10
2023-03-11T17:42:10.104Z,26.10
2023-03-11T17:44:50.565Z,26.00
2023-03-11T17:47:21.357Z,26.00
2023-03-11T17:49:49.568Z,25.90
2023-03-11T17:52:17.491Z,25.90
2023-03-11T17:54:45.539Z,25.90
2023-03-11T17:57:13.487Z,25.90
2023-03-11T17:59:41.408Z,26.00
2023-03-11T18:02:11.598Z,26.10
2023-03-11T18:04:43.323Z,26.20
2023-03-11T18:07:11.278Z,26.30
2023-03-11T18:09:39.249Z,27.60
2023-03-11T18:12:07.587Z,26.50
2023-03-11T18:14:35.598Z,26.50
2023-03-11T18:17:03.527Z,26.50
2023-03-11T18:19:31.540Z,26.50
2023-03-11T18:22:00.839Z,26.50
2023-03-11T18:24:28.760Z,26.80
2023-03-11T18:26:57.028Z,26.50
2023-03-11T18:29:24.976Z,26.40
2023-03-11T18:31:52.988Z,26.40
2023-03-11T18:34:20.958Z,26.30
2023-03-11T18:36:49.369Z,26.30
2023-03-11T18:39:18.635Z,26.20
2023-03-11T18:41:46.589Z,26.20
2023-03-11T18:44:14.529Z,26.10
2023-03-11T18:46:42.519Z,26.10
2023-03-11T18:49:12.604Z,26.00
2023-03-11T18:51:41.026Z,25.90
2023-03-11T18:54:09.048Z,25.80
2023-03-11T18:56:38.364Z,25.80
2023-03-11T18:59:07.817Z,25.70
2023-03-11T19:01:35.767Z,25.70
2023-03-11T19:04:03.732Z,25.60
2023-03-11T19:06:31.730Z,25.60
2023-03-11T19:08:59.678Z,25.50
2023-03-11T19:11:27.661Z,25.50
2023-03-11T19:13:57.309Z,25.40
2023-03-11T19:16:26.460Z,25.40
2023-03-11T19:18:55.189Z,25.30
2023-03-11T19:21:23.302Z,25.30
2023-03-11T19:23:52.812Z,25.30
2023-03-11T19:26:23.925Z,25.30
2023-03-11T19:28:57.448Z,25.20
2023-03-11T19:31:25.375Z,25.20
2023-03-11T19:33:53.298Z,25.10
2023-03-11T19:36:21.221Z,25.10
2023-03-11T19:38:49.179Z,25.00
2023-03-11T19:41:19.353Z,25.00
2023-03-11T19:43:47.444Z,24.90
2023-03-11T19:46:18.627Z,24.90
2023-03-11T19:48:46.813Z,24.80
2023-03-11T19:51:15.092Z,24.80
2023-03-11T19:53:43.085Z,24.80
2023-03-11T19:56:11.177Z,24.70
2023-03-11T19:58:39.194Z,24.70
2023-03-11T20:01:07.123Z,24.70
2023-03-11T20:03:36.426Z,24.60
2023-03-11T20:06:05.485Z,25.60
2023-03-11T20:08:36.592Z,24.50
2023-03-11T20:11:05.199Z,24.50
2023-03-11T20:16:08.309Z,24.40
2023-03-11T20:18:37.672Z,24.40
2023-03-11T20:21:06.799Z,24.40
2023-03-11T20:23:34.946Z,24.30
2023-03-11T20:26:06.373Z,24.40
2023-03-11T20:28:34.357Z,24.30
2023-03-11T20:31:08.808Z,24.10
2023-03-11T20:33:38.603Z,24.20
2023-03-11T20:36:07.581Z,24.20
2023-03-11T20:38:35.603Z,24.20
2023-03-11T20:41:05.887Z,24.10
2023-03-11T20:43:33.858Z,24.10
2023-03-11T20:46:01.954Z,24.10
2023-03-11T20:48:30.065Z,24.10
2023-03-11T20:51:02.207Z,24.00
2023-03-11T20:53:30.610Z,24.00
2023-03-11T20:55:58.835Z,24.00
2023-03-11T20:58:26.988Z,23.90
2023-03-11T21:00:55.079Z,23.90
2023-03-11T21:03:23.176Z,23.90
2023-03-11T21:05:51.147Z,23.90
2023-03-11T21:08:20.671Z,23.80
2023-03-11T21:10:48.614Z,23.80
2023-03-11T21:13:16.648Z,23.80
2023-03-11T21:15:44.975Z,23.80
2023-03-11T21:18:13.055Z,23.70
2023-03-11T21:20:41.081Z,23.70
2023-03-11T21:23:09.821Z,23.70
2023-03-11T21:25:42.686Z,23.60
2023-03-11T21:28:10.786Z,23.60
2023-03-11T21:30:38.708Z,23.60
2023-03-11T21:33:06.698Z,23.60
2023-03-11T21:35:34.877Z,23.60
2023-03-11T21:38:03.100Z,23.50
2023-03-11T21:40:31.199Z,23.50
2023-03-11T21:43:00.637Z,23.50
2023-03-11T21:45:28.682Z,23.40
2023-03-11T21:47:56.682Z,23.40
2023-03-11T21:50:24.750Z,23.40
2023-03-11T21:52:52.745Z,23.40
2023-03-11T21:55:20.793Z,23.40
2023-03-11T21:57:48.804Z,23.40
2023-03-11T22:00:18.572Z,23.30
2023-03-11T22:02:46.699Z,23.30
2023-03-11T22:05:15.828Z,23.30
2023-03-11T22:07:43.867Z,23.30
2023-03-11T22:10:12.731Z,23.30
2023-03-11T22:12:41.112Z,23.30
2023-03-11T22:15:10.002Z,23.20
2023-03-11T22:17:39.445Z,23.20
2023-03-11T22:20:09.823Z,23.10
2023-03-11T22:22:38.049Z,23.10
2023-03-11T22:25:06.639Z,23.10
2023-03-11T22:27:34.574Z,23.10
2023-03-11T22:30:02.538Z,23.10
2023-03-11T22:32:30.569Z,23.00
2023-03-11T22:34:59.944Z,23.00
2023-03-11T22:37:28.064Z,23.00
2023-03-11T22:39:56.001Z,22.90
2023-03-11T22:42:23.936Z,22.90
2023-03-11T22:44:52.054Z,22.90
2023-03-11T22:47:19.979Z,22.90
2023-03-11T22:49:48.277Z,22.90
2023-03-11T22:52:17.761Z,22.90
